createdAt,value
2023-11-15T00:00:46.609Z,12.25
2023-11-15T00:03:36.048Z,17.23
2023-11-15T00:06:25.573Z,20.85
2023-11-15T00:09:15.019Z,11.68
2023-11-15T00:12:05.056Z,14.52
2023-11-15T00:14:56.099Z,20.02
2023-11-15T00:17:45.782Z,15.07
2023-11-15T00:20:35.575Z,20.13
2023-11-15T00:23:27.723Z,20.88
2023-11-15T00:26:17.090Z,23.03
2023-11-15T00:29:16.066Z,19.73
2023-11-15T00:32:07.916Z,24.35
2023-11-15T00:34:57.275Z,21.10
2023-11-15T00:37:47.207Z,24.23
2023-11-15T00:40:36.621Z,17.13
2023-11-15T00:43:26.150Z,16.27
2023-11-15T00:46:16.846Z,20.27
2023-11-15T00:49:08.151Z,25.23
2023-11-15T00:51:58.004Z,20.80
2023-11-15T00:54:47.363Z,24.08
2023-11-15T00:57:37.688Z,26.45
2023-11-15T01:00:28.264Z,21.38
2023-11-15T01:03:27.516Z,20.00
2023-11-15T01:06:18.430Z,22.15
2023-11-15T01:09:09.488Z,23.25
2023-11-15T01:11:59.007Z,33.55
2023-11-15T01:14:48.419Z,22.45
2023-11-15T01:17:38.030Z,21.92
2023-11-15T01:20:27.502Z,23.88
2023-11-15T01:23:18.482Z,19.77
2023-11-15T01:26:08.437Z,22.20
2023-11-15T01:28:59.098Z,19.58
2023-11-15T01:31:48.461Z,31.25
2023-11-15T01:34:37.821Z,19.20
2023-11-15T01:37:27.140Z,15.48
2023-11-15T01:40:21.151Z,20.73
2023-11-15T01:43:12.506Z,21.23
2023-11-15T01:46:02.247Z,34.22
2023-11-15T01:48:51.764Z,20.13
2023-11-15T01:51:41.159Z,16.25
2023-11-15T01:54:32.161Z,23.98
2023-11-15T01:57:23.046Z,22.80
2023-11-15T02:00:15.246Z,34.60
2023-11-15T02:05:55.898Z,20.42
2023-11-15T02:08:45.484Z,24.85
2023-11-15T02:11:34.936Z,9.77
2023-11-15T02:14:25.874Z,21.33
2023-11-15T02:17:15.594Z,17.92
2023-11-15T02:20:09.905Z,25.48
2023-11-15T02:23:01.936Z,19.23
2023-11-15T02:25:53.372Z,18.93
2023-11-15T02:28:42.712Z,25.85
2023-11-15T02:31:33.265Z,33.83
2023-11-15T02:34:23.204Z,21.50
2023-11-15T02:37:12.645Z,18.42
2023-11-15T02:40:05.834Z,19.65
2023-11-15T02:42:57.694Z,20.58
2023-11-15T02:45:47.468Z,20.20
2023-11-15T02:48:36.918Z,25.08
2023-11-15T02:51:26.836Z,27.90
2023-11-15T02:54:16.807Z,24.92
2023-11-15T02:57:06.813Z,19.58
2023-11-15T02:59:57.584Z,19.48
2023-11-15T03:02:47.359Z,18.92
2023-11-15T03:05:38.170Z,23.00
2023-11-15T03:08:27.847Z,14.73
2023-11-15T03:11:17.462Z,16.75
2023-11-15T03:14:07.016Z,17.02
2023-11-15T03:16:58.111Z,16.38
2023-11-15T03:19:47.714Z,20.33
2023-11-15T03:22:37.189Z,15.65
2023-11-15T03:25:26.573Z,19.33
2023-11-15T03:28:15.851Z,18.63
2023-11-15T03:31:07.248Z,14.30
2023-11-15T03:33:58.113Z,17.48
2023-11-15T03:36:48.195Z,17.80
2023-11-15T03:39:39.037Z,12.50
2023-11-15T03:42:28.372Z,18.55
2023-11-15T03:45:18.415Z,14.65
2023-11-15T03:48:08.434Z,22.67
2023-11-15T03:50:59.924Z,19.65
2023-11-15T03:53:49.234Z,17.80
2023-11-15T03:56:38.536Z,10.60
2023-11-15T03:59:27.942Z,13.52
2023-11-15T04:02:17.968Z,12.52
2023-11-15T04:05:10.959Z,15.00
2023-11-15T04:08:01.675Z,12.75
2023-11-15T04:10:51.436Z,13.88
2023-11-15T04:13:40.984Z,18.23
2023-11-15T04:16:30.368Z,10.63
2023-11-15T04:19:22.471Z,11.60
2023-11-15T04:22:14.168Z,10.05
2023-11-15T04:25:06.275Z,12.33
2023-11-15T04:27:55.978Z,12.80
2023-11-15T04:30:45.379Z,14.02
2023-11-15T04:33:34.833Z,12.07
2023-11-15T04:36:24.620Z,13.98
2023-11-15T04:39:14.613Z,17.08
2023-11-15T04:42:05.774Z,9.30
2023-11-15T04:44:55.205Z,11.60
2023-11-15T04:47:44.584Z,17.20
2023-11-15T04:50:34.136Z,12.13
2023-11-15T04:53:23.457Z,11.48
2023-11-15T04:56:12.849Z,10.82
2023-11-15T04:59:03.734Z,9.25
2023-11-15T05:01:52.994Z,15.90
2023-11-15T05:04:42.360Z,13.57
2023-11-15T05:07:33.964Z,9.57
2023-11-15T05:10:23.488Z,16.55
2023-11-15T05:13:12.838Z,14.98
2023-11-15T05:16:05.103Z,7.68
2023-11-15T05:18:54.450Z,12.77
2023-11-15T05:21:44.745Z,11.32
2023-11-15T05:24:34.339Z,16.30
2023-11-15T05:27:24.059Z,16.35
2023-11-15T05:30:14.537Z,15.73
2023-11-15T05:33:05.624Z,11.02
2023-11-15T05:35:55.008Z,6.68
2023-11-15T05:38:44.381Z,11.70
2023-11-15T05:41:33.808Z,7.85
2023-11-15T05:44:23.168Z,18.10
2023-11-15T05:47:12.584Z,10.52
2023-11-15T05:50:04.110Z,10.48
2023-11-15T05:52:53.973Z,10.90
2023-11-15T05:55:43.645Z,14.77
2023-11-15T05:58:32.943Z,8.23
2023-11-15T06:01:22.477Z,15.30
2023-11-15T06:04:12.006Z,12.25
2023-11-15T06:07:02.878Z,11.52
2023-11-15T06:09:53.166Z,13.27
2023-11-15T06:12:42.828Z,12.48
2023-11-15T06:15:32.187Z,13.27
2023-11-15T06:18:23.161Z,9.35
2023-11-15T06:21:13.325Z,8.43
2023-11-15T06:24:05.870Z,11.35
2023-11-15T06:26:55.176Z,7.25
2023-11-15T06:29:48.996Z,10.30
2023-11-15T06:32:38.503Z,9.70
2023-11-15T06:35:28.059Z,15.70
2023-11-15T06:38:17.491Z,10.07
2023-11-15T06:41:09.933Z,8.15
2023-11-15T06:43:59.278Z,10.13
2023-11-15T06:46:48.732Z,11.18
2023-11-15T06:49:38.420Z,17.20
2023-11-15T06:52:27.770Z,11.88
2023-11-15T06:55:17.187Z,7.00
2023-11-15T06:58:08.623Z,15.23
2023-11-15T07:00:58.066Z,10.88
2023-11-15T07:03:48.163Z,12.93
2023-11-15T07:06:37.643Z,18.23
2023-11-15T07:09:28.513Z,11.82
2023-11-15T07:12:18.521Z,18.65
2023-11-15T07:15:15.799Z,10.65
2023-11-15T07:18:05.482Z,12.43
2023-11-15T07:20:54.968Z,8.75
2023-11-15T07:23:44.455Z,11.20
2023-11-15T07:26:36.668Z,14.45
2023-11-15T07:29:27.652Z,6.20
2023-11-15T07:32:18.773Z,16.95
2023-11-15T07:35:10.189Z,10.25
2023-11-15T07:37:59.582Z,9.48
2023-11-15T07:40:50.101Z,20.85
2023-11-15T07:43:39.522Z,13.98
2023-11-15T07:46:31.755Z,15.02
2023-11-15T07:49:25.104Z,13.83
2023-11-15T07:52:14.472Z,18.60
2023-11-15T07:55:04.498Z,12.52
2023-11-15T07:57:53.862Z,13.43
2023-11-15T08:00:43.330Z,15.85
2023-11-15T08:03:32.916Z,10.20
2023-11-15T08:06:23.736Z,7.10
2023-11-15T08:09:26.084Z,9.40
2023-11-15T08:12:16.294Z,11.30
2023-11-15T08:15:06.702Z,14.63
2023-11-15T08:17:57.641Z,18.38
2023-11-15T08:20:48.199Z,11.23
2023-11-15T08:23:39.635Z,14.45
2023-11-15T08:26:29.058Z,7.75
2023-11-15T08:29:18.786Z,13.70
2023-11-15T08:32:08.573Z,18.40
2023-11-15T08:34:58.135Z,17.02
2023-11-15T08:37:47.449Z,17.95
2023-11-15T08:40:39.270Z,18.55
2023-11-15T08:43:29.054Z,14.70
2023-11-15T08:46:18.719Z,13.75
2023-11-15T08:49:08.310Z,13.73
2023-11-15T08:51:58.854Z,17.95
2023-11-15T08:54:49.425Z,14.00
2023-11-15T08:57:40.210Z,17.70
2023-11-15T09:00:32.820Z,12.27
2023-11-15T09:03:22.485Z,14.25
2023-11-15T09:06:13.228Z,4.40
2023-11-15T09:09:05.390Z,11.75
2023-11-15T09:11:58.365Z,14.03
2023-11-15T09:17:47.980Z,13.57
2023-11-15T09:20:37.762Z,9.32
2023-11-15T09:23:30.709Z,18.10
2023-11-15T09:26:22.074Z,18.20
2023-11-15T09:29:11.417Z,25.45
2023-11-15T09:32:03.115Z,16.00
2023-11-15T09:34:53.316Z,14.32
2023-11-15T09:37:43.851Z,21.52
2023-11-15T09:40:33.532Z,18.60
2023-11-15T09:43:22.912Z,17.08
2023-11-15T09:46:16.690Z,16.27
2023-11-15T09:49:08.925Z,10.60
2023-11-15T09:52:00.479Z,11.98
2023-11-15T09:54:53.309Z,13.70
2023-11-15T10:00:34.441Z,15.07
2023-11-15T10:03:24.081Z,14.82
2023-11-15T10:06:14.820Z,12.30
2023-11-15T10:09:04.233Z,18.20
2023-11-15T10:11:53.544Z,16.10
2023-11-15T10:14:54.391Z,18.52
2023-11-15T10:17:45.261Z,21.15
2023-11-15T10:20:35.494Z,17.65
2023-11-15T10:23:33.641Z,16.95
2023-11-15T10:26:40.210Z,15.27
2023-11-15T10:29:29.592Z,17.17
2023-11-15T10:32:24.393Z,12.55
2023-11-15T10:35:28.869Z,17.02
2023-11-15T10:38:22.786Z,13.43
2023-11-15T10:41:20.503Z,15.93
2023-11-15T10:44:13.959Z,11.25
2023-11-15T10:47:07.198Z,13.27
2023-11-15T10:50:03.437Z,19.52
2023-11-15T10:52:52.929Z,12.85
2023-11-15T10:55:43.199Z,16.70
2023-11-15T10:58:35.321Z,13.50
2023-11-15T11:01:27.401Z,16.92
2023-11-15T11:04:17.583Z,11.23
2023-11-15T11:07:16.528Z,13.98
2023-11-15T11:10:15.991Z,12.38
2023-11-15T11:13:19.633Z,13.88
2023-11-15T11:16:36.268Z,12.55
2023-11-15T11:19:27.400Z,12.88
2023-11-15T11:22:19.157Z,15.40
2023-11-15T11:25:24.267Z,16.27
2023-11-15T11:28:15.247Z,15.48
2023-11-15T11:31:19.559Z,13.80
2023-11-15T11:34:13.852Z,16.35
2023-11-15T11:37:03.472Z,12.75
2023-11-15T11:39:57.232Z,12.65
2023-11-15T11:42:49.358Z,18.73
2023-11-15T11:45:39.487Z,16.47
2023-11-15T11:48:29.968Z,14.70
2023-11-15T11:51:20.797Z,15.63
2023-11-15T11:54:25.002Z,13.27
2023-11-15T11:57:22.900Z,14.20
2023-11-15T12:00:18.943Z,14.48
2023-11-15T12:03:18.177Z,13.13
2023-11-15T12:06:11.084Z,13.32
2023-11-15T12:09:02.042Z,13.38
2023-11-15T12:11:51.613Z,17.83
2023-11-15T12:14:52.930Z,17.83
2023-11-15T12:17:45.463Z,14.40
2023-11-15T12:20:37.714Z,12.80
2023-11-15T12:23:28.057Z,11.10
2023-11-15T12:26:18.782Z,17.20
2023-11-15T12:29:22.356Z,12.93
2023-11-15T12:32:12.089Z,14.35
2023-11-15T12:35:01.574Z,12.98
2023-11-15T12:37:54.168Z,13.15
2023-11-15T12:40:45.805Z,15.15
2023-11-15T12:43:36.798Z,14.35
2023-11-15T12:46:26.283Z,11.60
2023-11-15T12:49:16.916Z,8.63
2023-11-15T12:52:06.950Z,15.35
2023-11-15T12:54:56.781Z,12.93
2023-11-15T12:57:55.117Z,13.05
2023-11-15T13:01:02.406Z,12.55
2023-11-15T13:03:58.277Z,18.17
2023-11-15T13:06:47.805Z,10.95
2023-11-15T13:09:37.137Z,14.25
2023-11-15T13:12:27.855Z,13.40
2023-11-15T13:15:19.528Z,15.88
2023-11-15T13:18:12.425Z,25.73
2023-11-15T13:21:01.836Z,16.13
2023-11-15T13:23:53.515Z,16.95
2023-11-15T13:26:44.678Z,9.48
2023-11-15T13:29:34.182Z,13.40
2023-11-15T13:32:23.905Z,11.05
2023-11-15T13:35:14.737Z,14.98
2023-11-15T13:38:04.444Z,8.52
2023-11-15T13:40:54.238Z,8.60
2023-11-15T13:43:45.910Z,16.30
2023-11-15T13:46:37.029Z,11.52
2023-11-15T13:49:26.491Z,10.18
2023-11-15T13:52:17.809Z,9.68
2023-11-15T13:55:09.679Z,14.35
2023-11-15T13:57:59.099Z,8.27
2023-11-15T14:00:53.328Z,10.63
2023-11-15T14:03:42.791Z,11.02
2023-11-15T14:06:32.642Z,6.07
2023-11-15T14:09:23.718Z,9.10
2023-11-15T14:12:13.602Z,13.77
2023-11-15T14:15:03.161Z,9.07
2023-11-15T14:17:52.643Z,11.32
2023-11-15T14:20:42.070Z,10.90
2023-11-15T14:23:31.402Z,11.25
2023-11-15T14:26:22.289Z,14.93
2023-11-15T14:29:11.688Z,8.57
2023-11-15T14:32:02.253Z,10.85
2023-11-15T14:34:51.522Z,8.38
2023-11-15T14:37:41.800Z,10.35
2023-11-15T14:40:31.942Z,11.48
2023-11-15T14:43:22.878Z,11.25
2023-11-15T14:46:12.265Z,13.93
2023-11-15T14:49:01.793Z,7.82
2023-11-15T14:51:59.994Z,11.27
2023-11-15T14:54:50.456Z,10.75
2023-11-15T14:57:40.256Z,12.10
2023-11-15T15:00:31.055Z,8.88
2023-11-15T15:03:23.235Z,8.23
2023-11-15T15:06:13.940Z,14.30
2023-11-15T15:09:04.801Z,12.73
2023-11-15T15:11:57.420Z,15.52
2023-11-15T15:14:47.917Z,12.95
2023-11-15T15:17:39.220Z,11.55
2023-11-15T15:20:29.033Z,12.82
2023-11-15T15:23:18.502Z,14.35
2023-11-15T15:26:08.648Z,14.38
2023-11-15T15:28:58.117Z,18.25
2023-11-15T15:31:47.554Z,11.82
2023-11-15T15:34:38.685Z,11.13
2023-11-15T15:37:29.465Z,11.43
2023-11-15T15:40:19.633Z,13.82
2023-11-15T15:43:09.242Z,10.32
2023-11-15T15:45:58.847Z,8.95
2023-11-15T15:48:52.408Z,13.40
2023-11-15T15:51:43.322Z,15.90
2023-11-15T15:54:32.772Z,18.77
2023-11-15T15:57:22.406Z,14.57
2023-11-15T16:00:17.384Z,19.75
2023-11-15T16:03:07.430Z,16.27
2023-11-15T16:05:57.367Z,20.67
2023-11-15T16:08:48.474Z,23.33
2023-11-15T16:11:37.819Z,21.50
2023-11-15T16:14:27.301Z,21.38
2023-11-15T16:17:17.039Z,29.77
2023-11-15T16:20:08.832Z,29.50
2023-11-15T16:22:58.819Z,35.60
2023-11-15T16:25:50.089Z,32.40
2023-11-15T16:28:39.709Z,31.48
2023-11-15T16:31:29.117Z,26.35
2023-11-15T16:34:18.679Z,22.10
2023-11-15T16:37:09.958Z,20.40
2023-11-15T16:39:59.989Z,21.88
2023-11-15T16:42:52.424Z,19.60
2023-11-15T16:45:42.428Z,21.70
2023-11-15T16:48:32.882Z,20.15
2023-11-15T16:51:22.777Z,23.75
2023-11-15T16:54:14.482Z,28.20
2023-11-15T16:57:06.433Z,23.85
2023-11-15T16:59:58.714Z,28.40
2023-11-15T17:02:50.839Z,24.33
2023-11-15T17:05:40.610Z,40.33
2023-11-15T17:08:29.956Z,28.80
2023-11-15T17:11:19.701Z,25.63
2023-11-15T17:14:09.254Z,22.60
2023-11-15T17:17:01.250Z,20.63
2023-11-15T17:19:50.594Z,19.95
2023-11-15T17:22:39.916Z,24.02
2023-11-15T17:25:29.282Z,29.70
2023-11-15T17:28:18.648Z,22.77
2023-11-15T17:31:09.265Z,22.00
2023-11-15T17:34:00.101Z,19.63
2023-11-15T17:36:50.063Z,30.10
2023-11-15T17:39:40.829Z,30.00
2023-11-15T17:42:30.283Z,30.35
2023-11-15T17:45:19.880Z,37.65
2023-11-15T17:48:10.362Z,43.53
2023-11-15T17:51:01.846Z,48.17
2023-11-15T17:53:51.307Z,54.75
2023-11-15T17:56:40.630Z,64.95
2023-11-15T17:59:30.086Z,62.05
2023-11-15T18:02:19.560Z,58.30
2023-11-15T18:05:13.588Z,47.22
2023-11-15T18:08:04.911Z,45.97
2023-11-15T18:10:54.382Z,51.22
2023-11-15T18:13:43.698Z,52.97
2023-11-15T18:16:33.113Z,51.47
2023-11-15T18:19:23.077Z,53.92
2023-11-15T18:22:12.505Z,73.00
2023-11-15T18:25:05.466Z,73.07
2023-11-15T18:27:54.932Z,90.47
2023-11-15T18:30:46.395Z,75.40
2023-11-15T18:33:37.401Z,82.68
2023-11-15T18:36:26.937Z,75.75
2023-11-15T18:39:18.051Z,74.28
2023-11-15T18:42:15.203Z,70.25
2023-11-15T18:45:06.229Z,85.95
2023-11-15T18:47:55.672Z,98.90
2023-11-15T18:50:45.420Z,112.72
2023-11-15T18:53:34.855Z,107.35
2023-11-15T18:56:24.929Z,92.97
2023-11-15T18:59:15.697Z,81.18
2023-11-15T19:02:05.696Z,67.30
2023-11-15T19:04:55.427Z,60.78
2023-11-15T19:07:45.616Z,101.63
2023-11-15T19:10:34.935Z,74.78
2023-11-15T19:13:26.395Z,73.85
2023-11-15T19:16:20.057Z,75.30
2023-11-15T19:19:10.766Z,90.13
2023-11-15T19:22:00.490Z,66.32
2023-11-15T19:24:50.309Z,73.18
2023-11-15T19:27:40.348Z,89.88
2023-11-15T19:30:29.782Z,63.85
2023-11-15T19:33:20.885Z,42.47
2023-11-15T19:36:12.182Z,79.45
2023-11-15T19:39:01.738Z,46.17
2023-11-15T19:41:54.495Z,63.72
2023-11-15T19:44:44.349Z,55.33
2023-11-15T19:47:34.796Z,53.75
2023-11-15T19:50:25.609Z,55.03
2023-11-15T19:53:14.993Z,49.60
2023-11-15T19:56:04.914Z,50.55
2023-11-15T19:58:54.248Z,44.53
2023-11-15T20:01:43.924Z,47.42
2023-11-15T20:04:33.380Z,49.15
2023-11-15T20:07:26.972Z,57.15
2023-11-15T20:10:16.601Z,64.20
2023-11-15T20:13:06.807Z,59.00
2023-11-15T20:15:56.449Z,66.80
2023-11-15T20:18:45.893Z,58.40
2023-11-15T20:21:37.235Z,67.47
2023-11-15T20:24:28.123Z,59.05
2023-11-15T20:27:18.544Z,65.53
2023-11-15T20:30:09.739Z,62.03
2023-11-15T20:32:59.173Z,57.78
2023-11-15T20:35:48.526Z,69.53
2023-11-15T20:38:37.843Z,56.88
2023-11-15T20:41:30.360Z,87.97
2023-11-15T20:44:19.817Z,78.32
2023-11-15T20:47:09.519Z,72.65
2023-11-15T20:49:59.015Z,63.85
2023-11-15T20:52:49.821Z,73.25
2023-11-15T20:55:39.526Z,69.25
2023-11-15T20:58:30.666Z,71.05
2023-11-15T21:01:20.170Z,74.28
2023-11-15T21:04:10.300Z,70.75
2023-11-15T21:07:00.222Z,70.57
2023-11-15T21:09:49.726Z,73.75
2023-11-15T21:12:40.187Z,68.70
2023-11-15T21:15:31.523Z,75.32
2023-11-15T21:18:20.987Z,73.13
2023-11-15T21:21:15.571Z,82.63
2023-11-15T21:24:09.179Z,84.13
2023-11-15T21:26:59.631Z,88.40
2023-11-15T21:29:49.267Z,91.03
2023-11-15T21:32:41.520Z,89.28
2023-11-15T21:35:30.961Z,87.22
2023-11-15T21:38:20.428Z,87.53
2023-11-15T21:41:09.790Z,89.00
2023-11-15T21:44:00.687Z,89.93
2023-11-15T21:46:51.967Z,89.60
2023-11-15T21:49:42.797Z,88.50
2023-11-15T21:52:32.442Z,89.38
2023-11-15T21:55:21.861Z,94.85
2023-11-15T21:58:13.517Z,86.45
2023-11-15T22:01:03.152Z,89.75
2023-11-15T22:03:52.713Z,94.60
2023-11-15T22:06:52.531Z,88.22
2023-11-15T22:09:48.944Z,98.05
2023-11-15T22:12:38.334Z,92.63
2023-11-15T22:15:29.576Z,95.13
2023-11-15T22:18:19.020Z,98.15
2023-11-15T22:21:09.466Z,98.25
2023-11-15T22:24:00.264Z,95.25
2023-11-15T22:26:49.805Z,102.55
2023-11-15T22:29:39.178Z,106.60
2023-11-15T22:32:29.150Z,100.28
2023-11-15T22:35:18.531Z,100.97
2023-11-15T22:38:08.776Z,108.00
2023-11-15T22:40:59.626Z,106.47
2023-11-15T22:43:49.827Z,110.15
2023-11-15T22:46:39.360Z,103.22
2023-11-15T22:49:28.793Z,107.72
2023-11-15T22:52:18.217Z,107.35
2023-11-15T22:55:08.955Z,104.63
2023-11-15T22:58:00.697Z,116.35
2023-11-15T23:00:52.386Z,113.88
2023-11-15T23:03:42.953Z,114.90
2023-11-15T23:06:32.452Z,121.25
2023-11-15T23:09:22.065Z,113.22
2023-11-15T23:12:12.836Z,130.32
2023-11-15T23:15:03.660Z,128.07
2023-11-15T23:17:55.393Z,130.20
2023-11-15T23:20:48.371Z,116.75
2023-11-15T23:23:37.835Z,127.72
2023-11-15T23:26:29.016Z,129.77
2023-11-15T23:29:18.471Z,125.53
2023-11-15T23:32:09.741Z,117.38
2023-11-15T23:34:59.147Z,116.70
2023-11-15T23:37:49.335Z,125.45
2023-11-15T23:40:38.733Z,118.15
2023-11-15T23:43:29.740Z,131.73
2023-11-15T23:46:19.315Z,129.13
2023-11-15T23:49:10.088Z,124.45
2023-11-15T23:51:59.544Z,129.88
2023-11-15T23:54:48.818Z,126.03
2023-11-15T23:57:38.232Z,125.10
